METAR Data
IDs: Format: Raw Decoded Include TAF

Data at: 2329 UTC 30 Jun 2022

METAR for:KEOE (Newberry Muni, SC, US)
Text:KEOE 302315Z AUTO 17003KT 10SM SCT032 SCT038 BKN049 25/20 A3019 RMK AO2
Temperature: 25.0°C ( 77°F)
Dewpoint: 20.0°C ( 68°F) [RH = 74%]
Pressure (altimeter):30.19 inches Hg (1022.4 mb)
Winds:from the S (170 degrees) at 3 MPH (3 knots; 1.5 m/s)
Visibility:10 or more sm (16+ km)
Ceiling:4900 feet AGL
Clouds: scattered clouds at 3200 feet AGL, scattered clouds at 3800 feet AGL, broken clouds at 4900 feet AGL
QC Flag:automated observation with no human augmentation

TAF for:KEOE (Newberry Muni, SC, US)
Text:No data found